Terminal Aerodrome Forecast
Issued by NWS

Home | Current Version | Previous Version | Text Only | Print | Product List | Glossary On
Versions: 1 2 3 4 5 6 7 8 9 10 11 12
000
FTUS41 KCAR 191120
TAFHUL
TAF
KHUL 191120Z 1912/2012 32005KT P6SM SCT050
     FM191500 34007G15KT P6SM FEW250
     FM200100 34004KT P6SM SKC
     FM200800 VRB04KT P6SM SCT150=

USA.gov is the U.S. government's official web portal to all federal, state and local government web resources and services.